sensor_id;sensor_type;location;lat;lon;timestamp;pressure;altitude;pressure_sealevel;temperature;humidity
25869;BME280;13688;53.154;18.136;2024-03-29T00:03:00;99051.41;;;8.78;100.00
25869;BME280;13688;53.154;18.136;2024-03-29T00:08:23;99062.29;;;8.67;100.00
25869;BME280;13688;53.154;18.136;2024-03-29T00:13:48;99076.72;;;8.56;100.00
25869;BME280;13688;53.154;18.136;2024-03-29T00:19:10;99088.45;;;8.46;100.00
25869;BME280;13688;53.154;18.136;2024-03-29T00:24:33;99102.87;;;8.35;100.00
25869;BME280;13688;53.154;18.136;2024-03-29T00:29:56;99118.38;;;8.22;100.00
25869;BME280;13688;53.154;18.136;2024-03-29T00:35:18;99133.61;;;8.12;100.00
25869;BME280;13688;53.154;18.136;2024-03-29T00:40:44;99142.34;;;8.04;100.00
25869;BME280;13688;53.154;18.136;2024-03-29T00:46:06;99173.88;;;8.00;100.00
25869;BME280;13688;53.154;18.136;2024-03-29T00:51:28;99166.14;;;7.97;100.00
25869;BME280;13688;53.154;18.136;2024-03-29T00:56:51;99192.75;;;7.89;100.00
25869;BME280;13688;53.154;18.136;2024-03-29T01:02:13;99197.95;;;7.81;100.00
25869;BME280;13688;53.154;18.136;2024-03-29T01:07:36;99203.03;;;7.74;100.00
25869;BME280;13688;53.154;18.136;2024-03-29T01:12:58;99211.88;;;7.65;100.00
25869;BME280;13688;53.154;18.136;2024-03-29T01:18:20;99232.97;;;7.59;100.00
25869;BME280;13688;53.154;18.136;2024-03-29T01:23:44;99239.00;;;7.51;100.00
25869;BME280;13688;53.154;18.136;2024-03-29T01:29:06;99252.20;;;7.43;100.00
25869;BME280;13688;53.154;18.136;2024-03-29T01:34:28;99266.12;;;7.37;100.00
25869;BME280;13688;53.154;18.136;2024-03-29T01:39:51;99278.33;;;7.30;100.00
25869;BME280;13688;53.154;18.136;2024-03-29T01:45:13;99299.39;;;7.23;100.00
25869;BME280;13688;53.154;18.136;2024-03-29T01:50:37;99303.46;;;7.17;100.00
25869;BME280;13688;53.154;18.136;2024-03-29T01:56:00;99316.36;;;7.12;100.00
25869;BME280;13688;53.154;18.136;2024-03-29T02:01:24;99339.27;;;7.05;100.00
25869;BME280;13688;53.154;18.136;2024-03-29T02:06:49;99337.11;;;6.99;100.00
25869;BME280;13688;53.154;18.136;2024-03-29T02:12:13;99351.11;;;6.92;100.00
25869;BME280;13688;53.154;18.136;2024-03-29T02:17:36;99370.80;;;6.91;100.00
25869;BME280;13688;53.154;18.136;2024-03-29T02:23:08;99375.69;;;6.85;100.00
25869;BME280;13688;53.154;18.136;2024-03-29T02:28:37;99383.09;;;6.82;100.00
25869;BME280;13688;53.154;18.136;2024-03-29T02:33:59;99389.55;;;6.79;100.00
25869;BME280;13688;53.154;18.136;2024-03-29T02:39:21;99403.89;;;6.78;100.00
25869;BME280;13688;53.154;18.136;2024-03-29T02:44:44;99396.23;;;6.74;100.00
25869;BME280;13688;53.154;18.136;2024-03-29T02:50:15;99407.45;;;6.68;100.00
25869;BME280;13688;53.154;18.136;2024-03-29T02:55:32;99413.77;;;6.67;100.00
25869;BME280;13688;53.154;18.136;2024-03-29T03:00:54;99420.45;;;6.61;100.00
25869;BME280;13688;53.154;18.136;2024-03-29T03:06:24;99422.64;;;6.56;100.00
25869;BME280;13688;53.154;18.136;2024-03-29T03:11:46;99434.69;;;6.50;100.00
25869;BME280;13688;53.154;18.136;2024-03-29T03:17:09;99437.97;;;6.43;100.00
25869;BME280;13688;53.154;18.136;2024-03-29T03:22:31;99442.00;;;6.37;100.00
25869;BME280;13688;53.154;18.136;2024-03-29T03:27:53;99450.63;;;6.29;100.00
25869;BME280;13688;53.154;18.136;2024-03-29T03:33:16;99450.73;;;6.17;100.00
25869;BME280;13688;53.154;18.136;2024-03-29T03:38:39;99446.88;;;6.10;100.00
25869;BME280;13688;53.154;18.136;2024-03-29T03:44:01;99445.53;;;6.04;100.00
25869;BME280;13688;53.154;18.136;2024-03-29T03:49:23;99434.98;;;6.02;100.00
25869;BME280;13688;53.154;18.136;2024-03-29T03:54:46;99449.43;;;6.00;100.00
25869;BME280;13688;53.154;18.136;2024-03-29T04:00:09;99461.17;;;5.97;100.00
25869;BME280;13688;53.154;18.136;2024-03-29T04:05:36;99459.73;;;5.93;100.00
25869;BME280;13688;53.154;18.136;2024-03-29T04:10:57;99462.73;;;5.89;100.00
25869;BME280;13688;53.154;18.136;2024-03-29T04:16:20;99456.77;;;5.85;100.00
25869;BME280;13688;53.154;18.136;2024-03-29T04:21:42;99470.61;;;5.79;100.00
25869;BME280;13688;53.154;18.136;2024-03-29T04:27:04;99475.05;;;5.67;100.00
25869;BME280;13688;53.154;18.136;2024-03-29T04:32:27;99463.91;;;5.62;100.00
25869;BME280;13688;53.154;18.136;2024-03-29T04:37:49;99480.25;;;5.58;100.00
25869;BME280;13688;53.154;18.136;2024-03-29T04:43:12;99484.98;;;5.54;100.00
25869;BME280;13688;53.154;18.136;2024-03-29T04:48:34;99485.31;;;5.50;100.00
25869;BME280;13688;53.154;18.136;2024-03-29T04:53:57;99493.22;;;5.51;100.00
25869;BME280;13688;53.154;18.136;2024-03-29T04:59:19;99502.06;;;5.52;100.00
25869;BME280;13688;53.154;18.136;2024-03-29T05:04:42;99502.64;;;5.44;100.00
25869;BME280;13688;53.154;18.136;2024-03-29T05:10:07;99506.73;;;5.37;100.00
25869;BME280;13688;53.154;18.136;2024-03-29T05:15:31;99510.12;;;5.39;100.00
25869;BME280;13688;53.154;18.136;2024-03-29T05:20:54;99500.22;;;5.41;100.00
25869;BME280;13688;53.154;18.136;2024-03-29T05:26:17;99514.88;;;5.46;100.00
25869;BME280;13688;53.154;18.136;2024-03-29T05:31:40;99518.42;;;5.58;100.00
25869;BME280;13688;53.154;18.136;2024-03-29T05:37:03;99504.17;;;5.70;100.00
25869;BME280;13688;53.154;18.136;2024-03-29T05:42:28;99496.91;;;5.84;100.00
25869;BME280;13688;53.154;18.136;2024-03-29T05:47:51;99503.86;;;5.97;100.00
25869;BME280;13688;53.154;18.136;2024-03-29T05:53:14;99520.50;;;6.12;100.00
25869;BME280;13688;53.154;18.136;2024-03-29T05:58:37;99528.16;;;6.28;100.00
25869;BME280;13688;53.154;18.136;2024-03-29T06:03:59;99546.47;;;6.44;100.00
25869;BME280;13688;53.154;18.136;2024-03-29T06:09:26;99547.93;;;6.59;100.00
25869;BME280;13688;53.154;18.136;2024-03-29T06:14:49;99549.35;;;6.74;100.00
25869;BME280;13688;53.154;18.136;2024-03-29T06:20:29;99578.11;;;6.93;100.00
25869;BME280;13688;53.154;18.136;2024-03-29T06:25:51;99567.75;;;7.11;100.00
25869;BME280;13688;53.154;18.136;2024-03-29T06:31:14;99565.52;;;7.27;100.00
25869;BME280;13688;53.154;18.136;2024-03-29T06:36:36;99571.31;;;7.43;100.00
25869;BME280;13688;53.154;18.136;2024-03-29T06:41:59;99590.56;;;7.58;100.00
25869;BME280;13688;53.154;18.136;2024-03-29T06:47:22;99594.88;;;7.70;100.00
25869;BME280;13688;53.154;18.136;2024-03-29T06:52:45;99608.31;;;7.91;100.00
25869;BME280;13688;53.154;18.136;2024-03-29T06:58:07;99589.23;;;8.06;100.00
